Time;durP1;ratioP1;P1;durP2;ratioP2;P2;SDS_P1;SDS_P2;PMS_P1;PMS_P2;Temp;Humidity;BMP_temperature;BMP_pressure;BME280_temperature;BME280_humidity;BME280_pressure;Samples;Min_cycle;Max_cycle;Signal;HPM_P1;HPM_P2
2021/10/19 00:00:47;;;;;;;14.87;10.57;;;15.20;52.30;;;;;;5097807;28;20796;-91
2021/10/19 00:03:13;;;;;;;13.90;10.00;;;15.30;53.00;;;;;;5096732;28;20517;-91
2021/10/19 00:05:40;;;;;;;14.67;10.00;;;15.40;52.40;;;;;;5096584;28;20474;-91
2021/10/19 00:08:07;;;;;;;18.13;10.47;;;15.70;51.30;;;;;;5096901;28;20435;-91
2021/10/19 00:10:34;;;;;;;13.53;9.10;;;15.60;50.80;;;;;;5097343;28;20466;-91
2021/10/19 00:13:01;;;;;;;15.43;9.03;;;15.60;51.50;;;;;;5097669;28;20862;-91
2021/10/19 00:15:28;;;;;;;11.93;8.30;;;15.80;51.10;;;;;;5097357;28;20435;-91
2021/10/19 00:17:56;;;;;;;15.70;9.63;;;15.50;50.30;;;;;;5097042;28;20476;-88
2021/10/19 00:20:23;;;;;;;21.20;9.20;;;15.60;51.80;;;;;;5096646;28;20472;-88
2021/10/19 00:22:50;;;;;;;11.63;8.10;;;15.70;51.00;;;;;;5097674;28;20482;-89
2021/10/19 00:25:18;;;;;;;13.37;8.23;;;15.60;50.80;;;;;;5097166;28;20472;-88
2021/10/19 00:27:45;;;;;;;15.70;9.23;;;15.70;51.00;;;;;;5096651;28;20431;-88
2021/10/19 00:30:14;;;;;;;13.20;8.80;;;15.70;50.50;;;;;;5096544;28;20485;-88
2021/10/19 00:32:41;;;;;;;14.43;9.90;;;15.20;50.10;;;;;;5096841;28;20559;-90
2021/10/19 00:35:10;;;;;;;14.07;9.43;;;14.40;52.20;;;;;;5096930;28;20430;-90
2021/10/19 00:37:38;;;;;;;16.30;9.27;;;13.80;52.20;;;;;;5097029;28;20455;-90
2021/10/19 00:40:09;;;;;;;15.30;11.33;;;13.30;54.50;;;;;;5097407;28;20451;-90
2021/10/19 00:42:36;;;;;;;18.50;10.73;;;13.00;52.30;;;;;;5096841;28;20525;-90
2021/10/19 00:45:03;;;;;;;16.93;10.73;;;12.60;52.60;;;;;;5097312;28;20474;-90
2021/10/19 00:47:30;;;;;;;15.40;10.30;;;12.20;54.80;;;;;;5095678;28;21005;-90
2021/10/19 00:49:57;;;;;;;16.40;10.17;;;12.80;56.80;;;;;;5096104;28;20537;-90
2021/10/19 00:52:26;;;;;;;27.97;11.47;;;13.20;54.60;;;;;;5097651;28;20602;-89
2021/10/19 00:54:55;;;;;;;15.10;9.73;;;12.80;54.80;;;;;;5097252;28;20549;-89
2021/10/19 00:57:22;;;;;;;19.03;11.83;;;12.70;55.80;;;;;;5097659;28;20499;-90
2021/10/19 00:59:49;;;;;;;12.70;9.27;;;13.00;54.40;;;;;;5097537;28;20449;-90
2021/10/19 01:02:17;;;;;;;15.87;10.17;;;13.30;53.60;;;;;;5099175;28;20496;-89
2021/10/19 01:04:44;;;;;;;13.27;9.20;;;13.80;55.80;;;;;;5096491;28;20470;-90
2021/10/19 01:07:13;;;;;;;12.00;9.30;;;14.10;54.80;;;;;;5096703;28;20430;-90
2021/10/19 01:09:41;;;;;;;13.30;9.40;;;14.60;54.20;;;;;;5097152;28;20450;-90
2021/10/19 01:12:10;;;;;;;20.83;11.60;;;15.10;54.20;;;;;;5096280;28;20466;-90
2021/10/19 01:14:38;;;;;;;14.93;9.60;;;15.30;51.80;;;;;;5097215;28;20519;-90
2021/10/19 01:17:05;;;;;;;13.60;8.93;;;15.20;52.60;;;;;;5097842;28;20455;-90
2021/10/19 01:19:32;;;;;;;22.20;12.13;;;15.20;52.40;;;;;;5107248;28;20463;-89
2021/10/19 01:22:03;;;;;;;13.23;9.23;;;15.20;51.80;;;;;;5098942;28;20547;-90
2021/10/19 01:24:30;;;;;;;14.17;8.77;;;15.00;51.50;;;;;;5096019;28;20512;-89
2021/10/19 01:26:58;;;;;;;14.50;10.13;;;15.10;52.80;;;;;;5095722;28;20533;-89
2021/10/19 01:29:25;;;;;;;29.03;13.17;;;15.20;52.80;;;;;;5095205;28;20434;-90
2021/10/19 01:31:54;;;;;;;16.47;10.57;;;15.20;51.20;;;;;;5095197;28;20506;-89
2021/10/19 01:34:22;;;;;;;14.30;8.67;;;15.10;50.20;;;;;;5095212;28;20562;-89
2021/10/19 01:36:49;;;;;;;15.60;8.80;;;15.20;52.60;;;;;;5095765;28;20436;-90
2021/10/19 01:39:17;;;;;;;13.47;8.27;;;15.30;52.80;;;;;;5096138;28;20523;-90
2021/10/19 01:41:46;;;;;;;11.10;7.77;;;15.30;52.80;;;;;;5095469;28;20844;-91
2021/10/19 01:44:13;;;;;;;16.33;8.90;;;15.60;52.50;;;;;;5095493;28;20811;-90
2021/10/19 01:46:41;;;;;;;13.17;7.90;;;15.20;50.50;;;;;;5095632;28;20460;-90
2021/10/19 01:49:08;;;;;;;14.47;8.33;;;15.40;52.70;;;;;;5096054;28;20447;-90
2021/10/19 01:51:35;;;;;;;13.00;7.60;;;15.30;52.40;;;;;;5095638;28;20541;-90
2021/10/19 01:54:02;;;;;;;12.20;8.57;;;15.60;52.40;;;;;;5096299;28;20493;-90
2021/10/19 01:56:30;;;;;;;10.87;7.60;;;15.80;50.10;;;;;;5095935;28;20563;-90
2021/10/19 01:58:57;;;;;;;12.63;8.30;;;15.90;51.70;;;;;;5095685;28;20474;-91
2021/10/19 02:01:24;;;;;;;16.47;8.33;;;15.80;51.20;;;;;;5096194;28;20450;-90
2021/10/19 02:03:51;;;;;;;12.10;7.97;;;15.00;47.60;;;;;;5095713;28;20470;-90
2021/10/19 02:06:18;;;;;;;12.27;7.77;;;14.50;51.90;;;;;;5096755;28;20443;-90
2021/10/19 02:08:45;;;;;;;10.93;7.77;;;14.50;52.10;;;;;;5097306;28;20454;-91
2021/10/19 02:11:12;;;;;;;9.10;6.60;;;15.00;53.30;;;;;;5096875;28;20472;-90
2021/10/19 02:13:40;;;;;;;11.63;7.70;;;15.30;51.80;;;;;;5096962;28;21047;-90
2021/10/19 02:16:07;;;;;;;11.87;8.50;;;15.30;49.80;;;;;;5097038;28;20438;-91
2021/10/19 02:18:34;;;;;;;11.07;7.80;;;15.10;48.80;;;;;;5096888;28;20482;-91
2021/10/19 02:21:01;;;;;;;10.60;6.77;;;14.80;51.50;;;;;;5097931;28;20874;-91
2021/10/19 02:23:28;;;;;;;14.13;7.80;;;15.20;53.90;;;;;;5098088;28;20461;-91
2021/10/19 02:25:55;;;;;;;11.80;7.70;;;15.40;51.50;;;;;;5098909;28;20455;-91
2021/10/19 02:28:22;;;;;;;14.63;7.87;;;14.90;48.90;;;;;;5098245;28;20867;-91
2021/10/19 02:30:50;;;;;;;9.40;7.23;;;14.40;50.10;;;;;;5099513;28;20478;-91
2021/10/19 02:33:17;;;;;;;17.13;8.00;;;13.60;52.00;;;;;;5099840;28;20506;-90
2021/10/19 02:35:44;;;;;;;13.60;8.07;;;12.40;53.60;;;;;;5117035;28;20468;-90
2021/10/19 02:38:11;;;;;;;17.07;9.83;;;12.40;54.90;;;;;;5117527;28;20460;-90
2021/10/19 02:40:38;;;;;;;18.40;10.00;;;12.50;53.90;;;;;;5115967;28;20454;-90
2021/10/19 02:43:05;;;;;;;13.67;8.90;;;12.30;54.50;;;;;;5104148;28;20504;-90
2021/10/19 02:45:32;;;;;;;18.97;10.30;;;12.00;54.60;;;;;;5116304;28;20438;-88
2021/10/19 02:48:01;;;;;;;16.03;10.40;;;11.70;54.40;;;;;;5117563;28;20471;-90
2021/10/19 02:50:28;;;;;;;13.47;8.67;;;11.70;55.80;;;;;;5116846;28;20450;-90
2021/10/19 02:52:55;;;;;;;15.97;9.10;;;11.80;58.10;;;;;;5115273;28;20477;-90
2021/10/19 02:55:22;;;;;;;15.90;9.43;;;12.20;56.70;;;;;;5097332;28;20534;-90
2021/10/19 02:57:49;;;;;;;16.03;10.50;;;12.20;56.10;;;;;;5107729;28;20482;-90
2021/10/19 03:00:17;;;;;;;15.50;10.23;;;12.40;55.00;;;;;;5100510;28;20474;-91
2021/10/19 03:02:44;;;;;;;17.03;10.20;;;12.80;54.40;;;;;;5094220;28;20930;-91
2021/10/19 03:05:12;;;;;;;11.67;8.47;;;13.10;54.80;;;;;;5094174;28;20537;-90
2021/10/19 03:07:39;;;;;;;12.33;8.93;;;13.10;55.30;;;;;;5094002;28;20464;-91
2021/10/19 03:10:07;;;;;;;12.30;9.53;;;12.90;54.80;;;;;;5104629;28;20472;-91
2021/10/19 03:12:34;;;;;;;15.33;9.30;;;12.60;53.80;;;;;;5117433;28;20466;-90
2021/10/19 03:15:01;;;;;;;17.33;10.53;;;12.10;55.80;;;;;;5098193;28;20486;-90
2021/10/19 03:17:28;;;;;;;13.17;10.00;;;12.30;57.40;;;;;;5098226;28;20446;-91
2021/10/19 03:19:55;;;;;;;16.47;10.20;;;12.30;56.60;;;;;;5098278;28;20431;-91
2021/10/19 03:22:23;;;;;;;15.23;9.07;;;12.30;56.90;;;;;;5097977;28;20446;-91
2021/10/19 03:24:51;;;;;;;14.80;9.83;;;12.20;57.30;;;;;;5104831;28;20508;-91
2021/10/19 03:27:18;;;;;;;17.57;11.03;;;12.30;56.30;;;;;;5103907;28;20434;-90
2021/10/19 03:29:45;;;;;;;14.40;9.10;;;12.30;56.00;;;;;;5098788;28;20992;-91
2021/10/19 03:32:12;;;;;;;15.33;9.90;;;12.20;57.00;;;;;;5098629;28;20989;-91
2021/10/19 03:34:39;;;;;;;15.83;8.80;;;12.30;56.30;;;;;;5097942;28;20842;-90
2021/10/19 03:37:06;;;;;;;11.90;8.50;;;12.70;56.50;;;;;;5098480;28;20438;-90
2021/10/19 03:39:35;;;;;;;13.43;8.07;;;12.60;56.50;;;;;;5097412;28;20496;-90
2021/10/19 03:42:02;;;;;;;12.70;8.37;;;12.40;57.00;;;;;;5097139;28;20456;-90
2021/10/19 03:44:29;;;;;;;16.57;8.80;;;12.40;56.20;;;;;;5097804;28;20986;-90
2021/10/19 03:46:56;;;;;;;13.03;8.83;;;12.50;56.20;;;;;;5098294;28;20438;-90
2021/10/19 03:49:23;;;;;;;10.80;7.63;;;12.70;54.60;;;;;;5114190;28;20532;-90
2021/10/19 03:51:50;;;;;;;12.60;8.43;;;12.90;55.50;;;;;;5109659;28;20484;-90
2021/10/19 03:54:17;;;;;;;15.50;8.57;;;12.90;55.50;;;;;;5098580;28;20553;-90
2021/10/19 03:56:45;;;;;;;10.97;8.07;;;13.00;55.70;;;;;;5099063;28;20991;-90
2021/10/19 03:59:12;;;;;;;16.10;8.33;;;13.00;55.50;;;;;;5099151;28;20442;-90
2021/10/19 04:01:39;;;;;;;12.73;7.70;;;13.00;54.80;;;;;;5100093;28;20860;-89
2021/10/19 04:04:06;;;;;;;12.33;8.37;;;13.00;54.30;;;;;;5099418;28;20509;-90
2021/10/19 04:06:33;;;;;;;9.77;7.30;;;13.20;53.10;;;;;;5098979;28;20458;-90
2021/10/19 04:09:00;;;;;;;12.80;8.73;;;13.50;55.90;;;;;;5098915;28;20450;-90
2021/10/19 04:11:27;;;;;;;9.63;7.10;;;13.50;52.80;;;;;;5098559;28;20489;-90
2021/10/19 04:13:56;;;;;;;10.83;8.00;;;13.40;54.50;;;;;;5098239;28;20505;-90
2021/10/19 04:16:23;;;;;;;11.47;7.97;;;13.80;55.00;;;;;;5097850;28;20482;-90
2021/10/19 04:18:50;;;;;;;9.77;7.93;;;14.00;53.30;;;;;;5098505;28;20550;-90
2021/10/19 04:21:17;;;;;;;11.67;8.57;;;13.70;52.20;;;;;;5097826;28;20504;-90
2021/10/19 04:23:44;;;;;;;10.30;7.57;;;13.50;54.60;;;;;;5097121;28;20508;-90
2021/10/19 04:26:11;;;;;;;10.07;8.13;;;13.50;52.90;;;;;;5099142;28;20524;-90
2021/10/19 04:28:40;;;;;;;11.63;7.63;;;13.50;52.80;;;;;;5098863;28;20455;-90
2021/10/19 04:31:08;;;;;;;13.00;7.20;;;13.50;53.00;;;;;;5100242;28;20435;-90
2021/10/19 04:33:35;;;;;;;10.47;8.03;;;13.80;53.00;;;;;;5098184;28;20565;-90
2021/10/19 04:36:04;;;;;;;11.73;7.70;;;14.30;52.50;;;;;;5108398;28;20479;-90
2021/10/19 04:38:31;;;;;;;14.17;7.50;;;14.70;53.80;;;;;;5103152;28;20429;-90
2021/10/19 04:40:58;;;;;;;9.43;7.00;;;15.60;54.00;;;;;;5104673;28;20997;-90
2021/10/19 04:43:25;;;;;;;10.90;8.20;;;15.50;51.40;;;;;;5099236;28;20963;-90
2021/10/19 04:45:53;;;;;;;9.50;7.50;;;15.30;50.50;;;;;;5098490;28;20547;-90
2021/10/19 04:48:22;;;;;;;13.30;8.43;;;15.30;51.30;;;;;;5098568;28;20535;-90
2021/10/19 04:50:50;;;;;;;12.77;7.60;;;15.20;49.40;;;;;;5098182;28;20485;-90
2021/10/19 04:53:17;;;;;;;11.13;7.80;;;15.00;49.40;;;;;;5097795;28;20907;-90
2021/10/19 04:55:47;;;;;;;12.33;8.00;;;14.60;50.80;;;;;;5098064;28;20482;-90
2021/10/19 04:58:14;;;;;;;17.07;10.30;;;14.40;52.20;;;;;;5098670;28;20482;-90
2021/10/19 05:00:42;;;;;;;22.37;9.97;;;14.00;51.00;;;;;;5097151;28;20449;-90
2021/10/19 05:03:09;;;;;;;11.20;7.60;;;13.60;51.80;;;;;;5099752;28;20498;-90
2021/10/19 05:05:37;;;;;;;13.37;7.20;;;13.90;53.10;;;;;;5100116;28;20474;-90
2021/10/19 05:08:04;;;;;;;12.63;7.67;;;13.80;53.10;;;;;;5096675;28;21047;-90
2021/10/19 05:10:31;;;;;;;19.73;7.50;;;13.80;51.90;;;;;;5096980;28;20928;-90
2021/10/19 05:12:58;;;;;;;10.70;7.03;;;13.70;53.60;;;;;;5096679;28;20498;-90
2021/10/19 05:15:26;;;;;;;29.10;7.80;;;13.70;53.20;;;;;;5097178;28;20464;-90
2021/10/19 05:17:53;;;;;;;13.23;7.30;;;13.30;52.60;;;;;;5096965;28;20447;-90
2021/10/19 05:20:20;;;;;;;10.20;6.73;;;13.30;53.10;;;;;;5097061;28;20461;-90
2021/10/19 05:22:49;;;;;;;8.60;6.90;;;13.70;53.30;;;;;;5097298;28;20786;-91
2021/10/19 05:25:16;;;;;;;11.20;7.73;;;13.50;54.70;;;;;;5097364;28;20469;-91
2021/10/19 05:27:44;;;;;;;10.40;7.20;;;13.50;52.80;;;;;;5096945;28;20828;-91
2021/10/19 05:30:13;;;;;;;10.37;6.90;;;13.70;52.90;;;;;;5096820;28;20944;-91
2021/10/19 05:32:39;;;;;;;11.70;7.10;;;13.90;53.10;;;;;;5096661;28;20491;-91
2021/10/19 05:35:07;;;;;;;12.23;6.60;;;14.20;53.40;;;;;;5097287;28;20455;-91
2021/10/19 05:37:34;;;;;;;9.87;6.50;;;14.30;52.60;;;;;;5097793;28;20531;-91
2021/10/19 05:40:03;;;;;;;9.00;6.13;;;14.60;52.40;;;;;;5097112;28;20514;-92
2021/10/19 05:42:30;;;;;;;10.10;7.37;;;15.20;53.20;;;;;;5097958;28;20450;-92
2021/10/19 05:44:57;;;;;;;10.57;6.30;;;15.20;50.10;;;;;;5097827;28;20494;-92
2021/10/19 05:47:24;;;;;;;10.67;6.87;;;15.40;52.00;;;;;;5097730;28;20473;-92
2021/10/19 05:49:51;;;;;;;7.83;5.80;;;15.70;52.60;;;;;;5097070;28;20443;-92
2021/10/19 05:52:18;;;;;;;8.93;6.00;;;16.50;52.40;;;;;;5097142;28;20452;-92
2021/10/19 05:54:45;;;;;;;9.30;6.23;;;16.70;51.70;;;;;;5096902;28;20472;-92
2021/10/19 05:57:13;;;;;;;10.20;7.40;;;16.80;50.00;;;;;;5096430;28;20488;-93
2021/10/19 05:59:40;;;;;;;11.43;7.30;;;16.50;48.00;;;;;;5096947;28;20510;-92
2021/10/19 06:02:07;;;;;;;10.27;7.20;;;16.20;48.60;;;;;;5097140;28;20462;-92
2021/10/19 06:04:34;;;;;;;9.87;6.70;;;16.10;50.30;;;;;;5096952;28;20548;-92
2021/10/19 06:07:02;;;;;;;8.27;6.53;;;16.10;49.90;;;;;;5097174;28;20482;-92
2021/10/19 06:09:30;;;;;;;16.27;7.60;;;15.40;49.70;;;;;;5097815;28;20506;-92
2021/10/19 06:11:58;;;;;;;14.33;6.70;;;15.10;49.50;;;;;;5098178;28;20480;-92
2021/10/19 06:14:26;;;;;;;17.47;8.20;;;15.50;51.50;;;;;;5098726;28;20559;-92
2021/10/19 06:16:53;;;;;;;16.97;7.50;;;15.40;48.40;;;;;;5100356;28;20490;-92
2021/10/19 06:19:21;;;;;;;8.33;6.03;;;15.10;50.80;;;;;;5101125;28;20451;-92
2021/10/19 06:21:48;;;;;;;9.23;6.60;;;15.60;53.60;;;;;;5099141;28;20524;-92
2021/10/19 06:24:17;;;;;;;10.37;7.30;;;16.30;53.20;;;;;;5099639;28;20821;-92
2021/10/19 06:26:44;;;;;;;9.00;6.10;;;16.80;51.80;;;;;;5101257;28;20529;-91
2021/10/19 06:29:14;;;;;;;10.90;6.70;;;17.00;50.90;;;;;;5104601;28;20434;-92
2021/10/19 06:31:43;;;;;;;7.33;5.80;;;17.40;50.20;;;;;;5106184;28;20446;-92
2021/10/19 06:34:11;;;;;;;10.87;7.17;;;16.90;48.50;;;;;;5098571;28;20883;-93
2021/10/19 06:36:38;;;;;;;8.00;6.20;;;17.30;49.20;;;;;;5097226;28;20859;-92
2021/10/19 06:39:06;;;;;;;7.40;5.73;;;16.90;48.10;;;;;;5097582;28;20457;-93
2021/10/19 06:41:33;;;;;;;9.40;5.90;;;17.20;49.10;;;;;;5098842;28;20524;-93
2021/10/19 06:44:00;;;;;;;12.83;5.70;;;17.40;48.00;;;;;;5106109;28;20468;-91
2021/10/19 06:46:27;;;;;;;14.80;6.53;;;17.30;48.70;;;;;;5106537;28;20467;-91
2021/10/19 06:48:56;;;;;;;9.40;7.10;;;17.30;48.70;;;;;;5109036;28;20473;-92
2021/10/19 06:51:23;;;;;;;13.53;7.80;;;17.40;49.50;;;;;;5098704;28;20446;-92
2021/10/19 06:53:50;;;;;;;9.67;7.20;;;16.90;46.10;;;;;;5097235;28;20581;-92
2021/10/19 06:56:17;;;;;;;7.33;5.93;;;17.10;47.60;;;;;;5099232;28;20869;-92
2021/10/19 06:58:44;;;;;;;12.80;6.10;;;17.10;47.80;;;;;;5097419;28;20871;-91
2021/10/19 07:01:11;;;;;;;11.03;7.90;;;16.70;48.70;;;;;;5097668;28;20457;-92
2021/10/19 07:03:39;;;;;;;19.10;7.47;;;16.90;48.60;;;;;;5098838;28;20500;-91
2021/10/19 07:06:07;;;;;;;9.83;7.17;;;16.50;47.70;;;;;;5098676;28;20472;-91
2021/10/19 07:08:36;;;;;;;16.73;6.70;;;16.80;49.50;;;;;;5097942;28;20531;-92
2021/10/19 07:11:03;;;;;;;10.33;5.90;;;17.00;49.80;;;;;;5098865;28;20457;-92
2021/10/19 07:13:30;;;;;;;13.93;7.77;;;17.30;49.30;;;;;;5098953;28;20535;-92
2021/10/19 07:15:57;;;;;;;14.03;7.53;;;17.50;50.10;;;;;;5099831;28;20845;-92
2021/10/19 07:18:25;;;;;;;12.13;7.43;;;17.70;48.90;;;;;;5100844;28;20430;-92
2021/10/19 07:20:53;;;;;;;10.87;7.90;;;17.90;48.10;;;;;;5099329;28;20434;-92
2021/10/19 07:23:22;;;;;;;9.03;6.63;;;17.90;47.30;;;;;;5099685;28;20526;-92
2021/10/19 07:25:49;;;;;;;8.93;7.53;;;17.70;47.60;;;;;;5106871;28;20525;-90
2021/10/19 07:28:18;;;;;;;12.00;8.10;;;17.90;47.10;;;;;;5115566;28;20443;-91
2021/10/19 07:30:45;;;;;;;16.23;8.23;;;17.80;46.10;;;;;;5103777;28;20478;-91
2021/10/19 07:33:13;;;;;;;14.00;7.70;;;17.70;46.50;;;;;;5103328;28;20570;-92
2021/10/19 07:35:40;;;;;;;12.87;8.53;;;17.80;48.70;;;;;;5103376;28;20455;-91
2021/10/19 07:38:07;;;;;;;9.93;7.50;;;17.90;46.30;;;;;;5102925;28;20861;-92
2021/10/19 07:40:35;;;;;;;10.70;7.27;;;17.10;47.40;;;;;;5116135;28;20438;-92
2021/10/19 07:43:03;;;;;;;12.07;7.70;;;17.10;48.10;;;;;;5116472;28;20470;-91
2021/10/19 07:45:30;;;;;;;9.90;7.90;;;17.30;47.70;;;;;;5106809;28;20499;-92
2021/10/19 07:47:59;;;;;;;14.63;8.40;;;17.30;47.70;;;;;;5103169;28;20489;-92
2021/10/19 07:50:29;;;;;;;12.40;8.97;;;17.40;48.70;;;;;;5115044;28;20430;-92
2021/10/19 07:52:56;;;;;;;51.07;27.53;;;16.90;47.60;;;;;;5114683;28;20472;-91
2021/10/19 07:55:24;;;;;;;17.77;12.53;;;16.70;48.10;;;;;;5116014;28;20515;-92
2021/10/19 07:57:53;;;;;;;18.70;8.40;;;16.40;49.00;;;;;;5116348;28;20537;-92
2021/10/19 08:00:23;;;;;;;11.60;8.00;;;16.90;50.10;;;;;;5097755;28;20463;-92
2021/10/19 08:02:51;;;;;;;12.90;6.97;;;17.20;49.20;;;;;;5097465;28;20448;-92
2021/10/19 08:05:18;;;;;;;14.10;8.90;;;17.60;49.50;;;;;;5116043;28;20486;-92
2021/10/19 08:07:47;;;;;;;23.63;8.63;;;17.60;48.00;;;;;;5108931;28;20824;-92
2021/10/19 08:10:16;;;;;;;12.07;7.17;;;17.30;47.70;;;;;;5100871;28;20427;-92
2021/10/19 08:12:43;;;;;;;13.47;7.60;;;17.30;49.80;;;;;;5098234;28;20499;-91
2021/10/19 08:15:13;;;;;;;24.40;13.00;;;17.70;48.50;;;;;;5096234;28;20513;-92
2021/10/19 08:17:40;;;;;;;12.07;9.10;;;17.20;48.60;;;;;;5096600;28;20438;-92
2021/10/19 08:20:08;;;;;;;13.20;8.13;;;16.30;49.70;;;;;;5096817;28;20511;-92
2021/10/19 08:22:36;;;;;;;9.50;7.27;;;15.90;50.60;;;;;;5097203;28;20438;-91
2021/10/19 08:25:06;;;;;;;18.10;11.17;;;15.80;53.60;;;;;;5097423;28;20616;-93
2021/10/19 08:27:34;;;;;;;14.43;10.63;;;16.20;52.30;;;;;;5097531;28;20435;-92
2021/10/19 08:30:01;;;;;;;12.20;7.67;;;16.50;50.30;;;;;;5097182;28;20511;-91
2021/10/19 08:32:30;;;;;;;13.93;9.80;;;16.50;51.10;;;;;;5096747;28;20518;-91
2021/10/19 08:34:57;;;;;;;12.50;8.40;;;16.70;50.70;;;;;;5096313;28;20566;-92
2021/10/19 08:37:24;;;;;;;16.03;10.00;;;16.90;50.30;;;;;;5095703;28;20549;-92
2021/10/19 08:39:51;;;;;;;13.60;9.40;;;17.00;49.00;;;;;;5096032;28;20499;-92
2021/10/19 08:42:18;;;;;;;13.90;9.23;;;17.10;50.00;;;;;;5096110;28;20860;-92
2021/10/19 08:44:45;;;;;;;17.40;7.40;;;17.60;49.20;;;;;;5100974;28;20478;-89
2021/10/19 08:47:13;;;;;;;13.67;7.87;;;17.80;48.10;;;;;;5095945;28;20930;-92
2021/10/19 08:49:42;;;;;;;16.53;8.87;;;18.10;48.50;;;;;;5095936;28;20482;-92
2021/10/19 08:52:09;;;;;;;12.90;9.03;;;18.00;47.60;;;;;;5096319;28;20475;-92
2021/10/19 08:54:36;;;;;;;17.83;9.30;;;18.20;47.60;;;;;;5095964;28;20518;-92
2021/10/19 08:57:04;;;;;;;17.50;9.57;;;17.80;47.30;;;;;;5095898;28;20508;-91
2021/10/19 08:59:44;;;;;;;17.93;9.20;;;17.70;48.70;;;;;;5094504;28;20469;-90
2021/10/19 09:02:12;;;;;;;13.00;8.50;;;17.70;48.40;;;;;;5095282;28;20453;-91
2021/10/19 09:04:42;;;;;;;16.27;8.00;;;17.90;47.70;;;;;;5095959;28;20490;-90
2021/10/19 09:07:09;;;;;;;15.70;9.60;;;18.00;48.40;;;;;;5095259;28;20450;-91
2021/10/19 09:09:36;;;;;;;13.97;8.37;;;18.30;46.80;;;;;;5094830;28;20529;-91
2021/10/19 09:12:05;;;;;;;15.57;10.23;;;18.20;47.50;;;;;;5096174;28;20446;-91
2021/10/19 09:14:33;;;;;;;21.43;9.90;;;17.50;48.90;;;;;;5095509;28;20505;-91
2021/10/19 09:17:01;;;;;;;19.40;10.00;;;17.30;50.50;;;;;;5096396;28;20517;-91
2021/10/19 09:19:29;;;;;;;20.00;9.63;;;17.40;48.80;;;;;;5096421;28;20446;-91
2021/10/19 09:22:03;;;;;;;15.70;9.00;;;16.70;51.00;;;;;;5096733;28;20775;-90
2021/10/19 09:24:33;;;;;;;13.27;9.20;;;16.70;52.00;;;;;;5095915;28;20480;-91
2021/10/19 09:27:02;;;;;;;16.33;9.03;;;16.90;51.70;;;;;;5096067;28;20439;-91
2021/10/19 09:29:31;;;;;;;16.23;10.70;;;17.10;52.10;;;;;;5095545;28;20544;-91
2021/10/19 09:31:59;;;;;;;12.60;9.00;;;17.10;51.50;;;;;;5096218;28;20903;-91
2021/10/19 09:34:29;;;;;;;12.80;8.30;;;17.00;51.40;;;;;;5097309;28;20532;-92
2021/10/19 09:36:57;;;;;;;13.43;8.67;;;16.90;52.30;;;;;;5101489;28;20517;-91
2021/10/19 09:39:36;;;;;;;11.03;7.70;;;17.00;51.50;;;;;;5097721;28;20514;-91
2021/10/19 09:42:05;;;;;;;12.00;8.17;;;17.00;52.00;;;;;;5097578;28;20469;-91
2021/10/19 09:44:32;;;;;;;14.17;8.80;;;17.20;51.40;;;;;;5097554;28;20462;-92
2021/10/19 09:47:01;;;;;;;9.97;6.23;;;17.30;51.40;;;;;;5097963;28;20511;-92
2021/10/19 09:49:29;;;;;;;12.37;6.63;;;17.20;51.90;;;;;;5100364;28;20437;-91
2021/10/19 09:52:00;;;;;;;7.93;6.17;;;17.50;51.30;;;;;;5103827;28;20503;-92
2021/10/19 09:54:29;;;;;;;7.30;5.30;;;17.80;51.00;;;;;;5099319;28;20950;-92
2021/10/19 09:56:57;;;;;;;7.33;5.63;;;17.80;51.40;;;;;;5102816;28;20434;-92
2021/10/19 09:59:25;;;;;;;15.67;6.53;;;17.60;51.50;;;;;;5105383;28;20445;-92
2021/10/19 10:01:52;;;;;;;7.73;5.70;;;17.70;51.80;;;;;;5108041;28;20438;-92
2021/10/19 10:04:21;;;;;;;10.40;7.17;;;17.80;52.00;;;;;;5106697;28;20491;-91
2021/10/19 10:06:49;;;;;;;22.70;15.07;;;17.90;52.40;;;;;;5102553;28;20462;-92
2021/10/19 10:09:18;;;;;;;19.30;9.33;;;17.90;52.50;;;;;;5103333;28;20532;-92
2021/10/19 10:11:46;;;;;;;11.37;5.70;;;18.20;51.80;;;;;;5100793;28;20506;-93
2021/10/19 10:14:14;;;;;;;12.77;7.50;;;18.40;51.80;;;;;;5099266;28;20576;-93
2021/10/19 10:16:46;;;;;;;10.00;4.80;;;18.70;50.70;;;;;;5100201;28;20450;-92
2021/10/19 10:19:15;;;;;;;7.33;4.60;;;18.40;51.50;;;;;;5103001;28;21035;-93
2021/10/19 10:21:47;;;;;;;5.83;4.30;;;18.50;51.80;;;;;;5097939;28;20576;-93
2021/10/19 10:24:15;;;;;;;7.50;4.20;;;18.90;51.60;;;;;;5096648;28;20986;-92
2021/10/19 10:26:43;;;;;;;8.47;4.70;;;19.40;50.80;;;;;;5096727;28;20865;-92
2021/10/19 10:29:12;;;;;;;6.97;5.20;;;19.50;50.70;;;;;;5098286;28;20478;-92
2021/10/19 10:31:48;;;;;;;9.17;5.60;;;19.90;50.10;;;;;;5101196;28;20442;-93
2021/10/19 10:34:15;;;;;;;13.77;4.40;;;20.00;50.00;;;;;;5096200;28;20482;-92
2021/10/19 10:36:45;;;;;;;9.83;4.93;;;19.90;50.30;;;;;;5096134;28;20426;-92
2021/10/19 10:39:13;;;;;;;6.70;4.93;;;19.90;50.60;;;;;;5095993;28;20544;-92
2021/10/19 10:41:43;;;;;;;9.67;5.00;;;20.00;50.50;;;;;;5096399;28;20438;-92
2021/10/19 10:44:11;;;;;;;9.57;4.27;;;20.20;49.40;;;;;;5096231;28;20511;-92
2021/10/19 10:46:40;;;;;;;8.93;3.77;;;20.30;49.10;;;;;;5097653;28;20442;-93
2021/10/19 10:49:11;;;;;;;4.97;3.17;;;20.40;48.60;;;;;;5104379;28;20469;-92
2021/10/19 10:51:40;;;;;;;5.80;3.60;;;20.30;48.20;;;;;;5097773;28;20442;-92
2021/10/19 10:54:08;;;;;;;6.90;4.07;;;20.20;48.00;;;;;;5100094;28;20451;-93
2021/10/19 10:56:47;;;;;;;4.60;3.60;;;20.50;48.10;;;;;;5100663;28;20554;-92
2021/10/19 10:59:24;;;;;;;6.43;4.63;;;20.50;46.90;;;;;;5098019;28;20426;-91
2021/10/19 11:01:51;;;;;;;5.30;4.20;;;20.40;46.20;;;;;;5097420;28;20506;-91
2021/10/19 11:04:18;;;;;;;16.70;11.43;;;19.80;48.00;;;;;;5099401;28;20493;-91
2021/10/19 11:06:45;;;;;;;9.13;6.73;;;19.50;49.00;;;;;;5098471;28;20447;-93
2021/10/19 11:09:15;;;;;;;8.07;5.17;;;19.50;48.80;;;;;;5097787;28;20795;-92
2021/10/19 11:11:44;;;;;;;4.40;3.63;;;19.80;48.00;;;;;;5098407;28;20487;-92
2021/10/19 11:14:14;;;;;;;10.03;6.90;;;19.70;47.40;;;;;;5100372;28;20504;-91
2021/10/19 11:16:43;;;;;;;4.50;3.67;;;19.50;47.10;;;;;;5100251;28;20503;-92
2021/10/19 11:19:16;;;;;;;4.90;3.93;;;19.50;47.50;;;;;;5100256;28;20430;-92
2021/10/19 11:21:43;;;;;;;6.20;3.60;;;19.10;48.70;;;;;;5099786;28;20447;-92
2021/10/19 11:24:11;;;;;;;4.20;3.13;;;19.10;48.70;;;;;;5099870;28;20498;-92
2021/10/19 11:26:38;;;;;;;5.23;2.73;;;19.60;47.30;;;;;;5100341;28;20452;-91
2021/10/19 11:29:06;;;;;;;3.27;2.73;;;19.70;46.00;;;;;;5098077;28;20478;-91
2021/10/19 11:31:35;;;;;;;2.90;2.33;;;19.90;46.30;;;;;;5097459;28;20803;-91
2021/10/19 11:34:02;;;;;;;5.10;3.13;;;20.10;45.50;;;;;;5100667;28;20533;-91
2021/10/19 11:36:29;;;;;;;4.50;3.20;;;20.20;44.70;;;;;;5100884;28;20481;-91
2021/10/19 11:38:58;;;;;;;13.23;3.20;;;20.30;45.20;;;;;;5104396;28;20492;-91
2021/10/19 11:41:27;;;;;;;4.73;3.60;;;20.30;44.80;;;;;;5105784;28;20447;-90
2021/10/19 11:43:56;;;;;;;8.73;5.80;;;19.90;45.50;;;;;;5120470;28;20461;-88
2021/10/19 11:46:24;;;;;;;7.27;5.13;;;20.40;44.70;;;;;;5102443;28;20443;-90
2021/10/19 11:48:54;;;;;;;6.87;3.63;;;20.70;45.20;;;;;;5098648;28;20430;-90
2021/10/19 11:51:23;;;;;;;8.50;3.97;;;21.10;44.80;;;;;;5097526;28;20450;-90
2021/10/19 11:53:54;;;;;;;8.43;3.70;;;21.20;43.90;;;;;;5099337;28;20812;-91
2021/10/19 11:56:22;;;;;;;7.80;4.77;;;21.10;44.30;;;;;;5099748;28;20853;-90
2021/10/19 11:58:50;;;;;;;3.73;3.43;;;21.20;45.60;;;;;;5100586;28;20455;-91
2021/10/19 12:01:18;;;;;;;8.27;5.00;;;21.30;45.70;;;;;;5101361;28;20439;-91
2021/10/19 12:03:54;;;;;;;5.70;4.57;;;21.20;45.60;;;;;;5102506;28;20478;-91
2021/10/19 12:06:25;;;;;;;5.50;3.70;;;21.20;45.60;;;;;;5103589;28;20476;-91
2021/10/19 12:08:52;;;;;;;6.50;4.23;;;21.30;45.70;;;;;;5105248;28;20468;-91
2021/10/19 12:11:23;;;;;;;4.70;3.97;;;20.80;48.00;;;;;;5104098;28;20499;-91
2021/10/19 12:13:55;;;;;;;5.40;4.17;;;20.90;47.30;;;;;;5105111;28;20509;-92
2021/10/19 12:16:26;;;;;;;7.90;4.27;;;21.10;47.20;;;;;;5104459;28;20541;-91
2021/10/19 12:18:55;;;;;;;6.50;4.13;;;21.20;46.10;;;;;;5106741;28;20437;-91
2021/10/19 12:21:25;;;;;;;7.43;4.40;;;21.10;45.60;;;;;;5114040;28;20454;-92
2021/10/19 12:23:53;;;;;;;6.73;3.90;;;21.30;45.70;;;;;;5119671;28;20458;-90
2021/10/19 12:26:22;;;;;;;5.80;4.43;;;21.40;45.10;;;;;;5110627;28;20438;-91
2021/10/19 12:28:51;;;;;;;4.70;3.60;;;21.50;44.80;;;;;;5106862;28;20434;-91
2021/10/19 12:31:19;;;;;;;6.07;4.50;;;21.50;44.50;;;;;;5104703;28;20454;-91
2021/10/19 12:33:54;;;;;;;9.73;4.47;;;21.60;44.60;;;;;;5107947;28;20910;-90
2021/10/19 12:36:27;;;;;;;6.90;4.30;;;21.80;45.00;;;;;;5107804;28;20538;-92
2021/10/19 12:38:55;;;;;;;6.50;4.60;;;21.40;45.00;;;;;;5109095;28;20503;-91
2021/10/19 12:41:23;;;;;;;7.10;4.20;;;21.10;45.50;;;;;;5113447;28;20510;-90